Wittman Regional Airport
KOSH : now visible

Airfield :











YOU CAN JOIN US ON...

 
LOGIN :

Register | Disclaimer

   EN    FR    IT 

 









Legend :    VFR   Marginal VFR   IFR   Intensive IFR   Very Intensive IFR
Visi :
Ceiling :
>= 8 km
>= 3000ft
5 to 8 km
1000 to 3000 ft
1500m to 5 km
500 to 1000 ft
800 to 1500m
200 to 500 ft
< 800m
< 200 ft
Symbols :   Thunderstorms  Fog  Heavy snow  Heavy precipitations  Wind > 20 kt






- Airport Elevation : 808 ft
- IATA code : OSH


KOSH - Wittman Regional

CURRENT METAR :
  • 140653Z AUTO 27003KT 8SM OVC027 M06/M08 A3005 RMK AO2 SLP197 T10561078

EXPIRED METARs :
  • 140630Z AUTO 00000KT 9SM OVC029 M06/M08 A3005 RMK AO2 T10561078
  • 140553Z AUTO 27004KT 9SM OVC038 M06/M08 A3004 RMK AO2 SLP196 60000 T10561078 11056 21067 410561111 51006
  • 140453Z AUTO 00000KT 9SM OVC042 M06/M08 A3004 RMK AO2 SLP194 T10611083
  • 140353Z 22003KT 6SM BR OVC043 M06/M08 A3003 RMK AO2 SNE35 SLP192 P0000 T10611083

Expired Forecast.



MET'MAP, your aeronautical weather chart ! - Copyright ORBIFLY December 2007 - Disclaimer

ORBIFLY MET'MAP TEAM :

Programming & Development : Alexandra Zaïnal
Concept & Development : Baudouin d'Aumeries
Co-Development & Prog : Marc-Olivier Méhu
Technical & hardware support : Manuel Goepfert

Contact : metmap@orbifly.com




SOURCES & CREDITS :

   NOAA       Earth
Advisory